Terminal Aerodrome Forecast
Issued by NWS

Home | Current Version | Previous Version | Graphics & Text | Print | Product List | Glossary On
Versions: 1 2 3 4 5 6 7 8 9 10 11 12 13
523
FTUS43 KIWX 201120
TAFSBN
TAF
KSBN 201120Z 2012/2112 18011KT P6SM BKN070 WS020/24045KT
     FM201400 21014G26KT P6SM BKN050
     FM201700 24016G27KT P6SM VCTS BKN040CB
      TEMPO 2018/2021 5SM TSRA BKN030CB
     FM202200 29011KT P6SM BKN030=

USA.gov is the U.S. government's official web portal to all federal, state and local government web resources and services.